Terminal Aerodrome Forecast
Issued by NWS

Home | Current Version | Previous Version | Graphics & Text | Print | Product List | Glossary Off
Versions: 1 2 3 4 5 6 7 8 9 10 11 12 13 14 15 16 17 18

000
FTUS43 KDDC 171125
TAFGCK
TAF
KGCK 171125Z 1712/1812 25011KT P6SM SCT200
     FM171500 25012G18KT P6SM BKN250
     FM180000 19009KT P6SM SCT250
     FM180200 24013KT P6SM SCT250
     FM180500 34010KT P6SM SCT250
     FM180700 34024G32KT P6SM SCT250=

USA.gov is the U.S. government's official web portal to all federal, state and local government web resources and services.